sensor_id;sensor_type;location;lat;lon;timestamp;temperature;humidity
40151;DHT22;25866;52.420;10.640;2022-07-29T00:00:44;15.50;91.30
40151;DHT22;25866;52.420;10.640;2022-07-29T00:03:13;15.50;91.30
40151;DHT22;25866;52.420;10.640;2022-07-29T00:05:40;15.50;91.50
40151;DHT22;25866;52.420;10.640;2022-07-29T00:10:42;15.40;91.50
40151;DHT22;25866;52.420;10.640;2022-07-29T00:13:08;15.40;91.90
40151;DHT22;25866;52.420;10.640;2022-07-29T00:15:33;15.40;92.20
40151;DHT22;25866;52.420;10.640;2022-07-29T00:17:59;15.40;91.90
40151;DHT22;25866;52.420;10.640;2022-07-29T00:20:37;15.30;91.70
40151;DHT22;25866;52.420;10.640;2022-07-29T00:23:03;15.30;91.50
40151;DHT22;25866;52.420;10.640;2022-07-29T00:25:28;15.40;91.60
40151;DHT22;25866;52.420;10.640;2022-07-29T00:27:54;15.40;91.40
40151;DHT22;25866;52.420;10.640;2022-07-29T00:33:24;15.40;91.30
40151;DHT22;25866;52.420;10.640;2022-07-29T00:35:50;15.40;91.30
40151;DHT22;25866;52.420;10.640;2022-07-29T00:38:17;15.40;92.00
40151;DHT22;25866;52.420;10.640;2022-07-29T00:40:46;15.40;92.20
40151;DHT22;25866;52.420;10.640;2022-07-29T00:43:13;15.30;92.30
40151;DHT22;25866;52.420;10.640;2022-07-29T00:45:39;15.20;92.10
40151;DHT22;25866;52.420;10.640;2022-07-29T00:48:05;15.20;92.30
40151;DHT22;25866;52.420;10.640;2022-07-29T00:50:38;15.20;92.10
40151;DHT22;25866;52.420;10.640;2022-07-29T00:53:05;15.20;91.90
40151;DHT22;25866;52.420;10.640;2022-07-29T00:55:31;15.10;91.80
40151;DHT22;25866;52.420;10.640;2022-07-29T00:57:58;15.10;91.90
40151;DHT22;25866;52.420;10.640;2022-07-29T01:00:26;15.10;91.90
40151;DHT22;25866;52.420;10.640;2022-07-29T01:02:52;15.20;92.10
40151;DHT22;25866;52.420;10.640;2022-07-29T01:05:20;15.20;92.00
40151;DHT22;25866;52.420;10.640;2022-07-29T01:07:48;15.20;91.90
40151;DHT22;25866;52.420;10.640;2022-07-29T01:10:16;15.20;92.10
40151;DHT22;25866;52.420;10.640;2022-07-29T01:12:44;15.10;92.10
40151;DHT22;25866;52.420;10.640;2022-07-29T01:15:12;15.10;92.30
40151;DHT22;25866;52.420;10.640;2022-07-29T01:24:07;15.10;92.20
40151;DHT22;25866;52.420;10.640;2022-07-29T01:30:01;15.10;92.50
40151;DHT22;25866;52.420;10.640;2022-07-29T01:32:36;15.10;92.60
40151;DHT22;25866;52.420;10.640;2022-07-29T01:37:50;15.10;93.00
40151;DHT22;25866;52.420;10.640;2022-07-29T01:42:55;15.00;92.80
40151;DHT22;25866;52.420;10.640;2022-07-29T01:45:39;15.00;93.00
40151;DHT22;25866;52.420;10.640;2022-07-29T01:48:16;15.10;93.00
40151;DHT22;25866;52.420;10.640;2022-07-29T01:51:01;15.10;93.20
40151;DHT22;25866;52.420;10.640;2022-07-29T01:53:44;15.10;93.20
40151;DHT22;25866;52.420;10.640;2022-07-29T01:56:12;15.10;93.20
40151;DHT22;25866;52.420;10.640;2022-07-29T01:58:40;15.00;93.10
40151;DHT22;25866;52.420;10.640;2022-07-29T02:01:12;15.00;93.00
40151;DHT22;25866;52.420;10.640;2022-07-29T02:03:39;15.00;92.90
40151;DHT22;25866;52.420;10.640;2022-07-29T02:06:08;14.90;93.10
40151;DHT22;25866;52.420;10.640;2022-07-29T02:08:35;15.00;93.10
40151;DHT22;25866;52.420;10.640;2022-07-29T02:11:03;15.00;93.00
40151;DHT22;25866;52.420;10.640;2022-07-29T02:13:31;15.00;93.00
40151;DHT22;25866;52.420;10.640;2022-07-29T02:15:58;15.00;93.10
40151;DHT22;25866;52.420;10.640;2022-07-29T02:18:26;15.00;93.10
40151;DHT22;25866;52.420;10.640;2022-07-29T02:20:54;15.00;93.00
40151;DHT22;25866;52.420;10.640;2022-07-29T02:23:24;15.00;93.00
40151;DHT22;25866;52.420;10.640;2022-07-29T02:25:53;15.00;93.20
40151;DHT22;25866;52.420;10.640;2022-07-29T02:28:22;15.00;93.30
40151;DHT22;25866;52.420;10.640;2022-07-29T02:30:52;14.90;93.20
40151;DHT22;25866;52.420;10.640;2022-07-29T02:33:22;15.00;93.40
40151;DHT22;25866;52.420;10.640;2022-07-29T02:35:50;14.90;93.40
40151;DHT22;25866;52.420;10.640;2022-07-29T02:38:16;14.90;93.40
40151;DHT22;25866;52.420;10.640;2022-07-29T02:41:13;15.00;93.50
40151;DHT22;25866;52.420;10.640;2022-07-29T02:43:44;15.00;93.50
40151;DHT22;25866;52.420;10.640;2022-07-29T02:46:16;15.00;93.40
40151;DHT22;25866;52.420;10.640;2022-07-29T02:48:49;15.00;93.40
40151;DHT22;25866;52.420;10.640;2022-07-29T02:51:29;14.90;93.50
40151;DHT22;25866;52.420;10.640;2022-07-29T02:54:00;14.90;93.60
40151;DHT22;25866;52.420;10.640;2022-07-29T02:56:28;14.90;93.80
40151;DHT22;25866;52.420;10.640;2022-07-29T02:59:03;14.90;94.10
40151;DHT22;25866;52.420;10.640;2022-07-29T03:01:32;14.80;94.10
40151;DHT22;25866;52.420;10.640;2022-07-29T03:04:04;14.90;94.20
40151;DHT22;25866;52.420;10.640;2022-07-29T03:06:33;14.90;94.20
40151;DHT22;25866;52.420;10.640;2022-07-29T03:09:00;14.80;94.20
40151;DHT22;25866;52.420;10.640;2022-07-29T03:11:26;14.80;94.40
40151;DHT22;25866;52.420;10.640;2022-07-29T03:13:53;14.80;94.30
40151;DHT22;25866;52.420;10.640;2022-07-29T03:16:19;14.80;94.40
40151;DHT22;25866;52.420;10.640;2022-07-29T03:18:47;14.80;94.50
40151;DHT22;25866;52.420;10.640;2022-07-29T03:21:12;14.80;94.30
40151;DHT22;25866;52.420;10.640;2022-07-29T03:23:43;14.80;94.40
40151;DHT22;25866;52.420;10.640;2022-07-29T03:26:10;14.80;94.20
40151;DHT22;25866;52.420;10.640;2022-07-29T03:28:36;14.90;94.30
40151;DHT22;25866;52.420;10.640;2022-07-29T03:31:01;14.90;94.20
40151;DHT22;25866;52.420;10.640;2022-07-29T03:33:27;14.80;94.20
40151;DHT22;25866;52.420;10.640;2022-07-29T03:35:54;14.80;94.30
40151;DHT22;25866;52.420;10.640;2022-07-29T03:38:21;14.80;94.20
40151;DHT22;25866;52.420;10.640;2022-07-29T03:40:53;14.80;94.30
40151;DHT22;25866;52.420;10.640;2022-07-29T03:43:22;14.70;94.50
40151;DHT22;25866;52.420;10.640;2022-07-29T03:45:52;14.50;94.70
40151;DHT22;25866;52.420;10.640;2022-07-29T03:48:21;14.60;94.60
40151;DHT22;25866;52.420;10.640;2022-07-29T03:50:50;14.60;94.90
40151;DHT22;25866;52.420;10.640;2022-07-29T03:53:18;14.60;94.90
40151;DHT22;25866;52.420;10.640;2022-07-29T03:55:50;14.60;94.90
40151;DHT22;25866;52.420;10.640;2022-07-29T03:58:18;14.50;95.20
40151;DHT22;25866;52.420;10.640;2022-07-29T04:00:44;14.40;95.30
40151;DHT22;25866;52.420;10.640;2022-07-29T04:03:12;14.40;95.40
40151;DHT22;25866;52.420;10.640;2022-07-29T04:05:38;14.50;95.60
40151;DHT22;25866;52.420;10.640;2022-07-29T04:08:04;14.50;95.70
40151;DHT22;25866;52.420;10.640;2022-07-29T04:10:30;14.50;95.50
40151;DHT22;25866;52.420;10.640;2022-07-29T04:12:59;14.50;95.60
40151;DHT22;25866;52.420;10.640;2022-07-29T04:15:25;14.60;95.70
40151;DHT22;25866;52.420;10.640;2022-07-29T04:17:51;14.60;95.60
40151;DHT22;25866;52.420;10.640;2022-07-29T04:20:16;14.50;96.10
40151;DHT22;25866;52.420;10.640;2022-07-29T04:22:43;14.60;96.20
40151;DHT22;25866;52.420;10.640;2022-07-29T04:25:10;14.60;96.40
40151;DHT22;25866;52.420;10.640;2022-07-29T04:27:36;14.60;96.40
40151;DHT22;25866;52.420;10.640;2022-07-29T04:30:21;14.70;96.50
40151;DHT22;25866;52.420;10.640;2022-07-29T04:32:47;14.70;96.60
40151;DHT22;25866;52.420;10.640;2022-07-29T04:35:19;14.70;97.00
40151;DHT22;25866;52.420;10.640;2022-07-29T04:37:45;14.70;96.90
40151;DHT22;25866;52.420;10.640;2022-07-29T04:40:11;14.70;97.10
40151;DHT22;25866;52.420;10.640;2022-07-29T04:42:37;14.70;96.90
40151;DHT22;25866;52.420;10.640;2022-07-29T04:45:09;14.70;97.20
40151;DHT22;25866;52.420;10.640;2022-07-29T04:47:35;14.70;97.30
40151;DHT22;25866;52.420;10.640;2022-07-29T04:50:00;14.70;97.10
40151;DHT22;25866;52.420;10.640;2022-07-29T04:52:26;14.70;97.30
40151;DHT22;25866;52.420;10.640;2022-07-29T04:54:54;14.70;97.10
40151;DHT22;25866;52.420;10.640;2022-07-29T04:57:19;14.80;97.20
40151;DHT22;25866;52.420;10.640;2022-07-29T04:59:45;14.80;97.30
40151;DHT22;25866;52.420;10.640;2022-07-29T05:02:11;14.90;97.60
40151;DHT22;25866;52.420;10.640;2022-07-29T05:04:36;14.90;97.60
40151;DHT22;25866;52.420;10.640;2022-07-29T05:07:02;15.00;97.70
40151;DHT22;25866;52.420;10.640;2022-07-29T05:09:28;15.00;97.70
40151;DHT22;25866;52.420;10.640;2022-07-29T05:11:53;15.00;97.70
40151;DHT22;25866;52.420;10.640;2022-07-29T05:14:20;15.00;97.40
40151;DHT22;25866;52.420;10.640;2022-07-29T05:16:45;15.10;97.60
40151;DHT22;25866;52.420;10.640;2022-07-29T05:19:11;15.20;97.50
40151;DHT22;25866;52.420;10.640;2022-07-29T05:21:37;15.20;97.70
40151;DHT22;25866;52.420;10.640;2022-07-29T05:24:03;15.30;97.90
40151;DHT22;25866;52.420;10.640;2022-07-29T05:26:28;15.30;97.70
40151;DHT22;25866;52.420;10.640;2022-07-29T05:28:54;15.40;97.50
40151;DHT22;25866;52.420;10.640;2022-07-29T05:31:20;15.40;97.20
40151;DHT22;25866;52.420;10.640;2022-07-29T05:33:45;15.40;97.50
40151;DHT22;25866;52.420;10.640;2022-07-29T05:36:12;15.40;97.50
40151;DHT22;25866;52.420;10.640;2022-07-29T05:38:38;15.40;97.70
40151;DHT22;25866;52.420;10.640;2022-07-29T05:41:04;15.40;97.70
40151;DHT22;25866;52.420;10.640;2022-07-29T05:43:30;15.40;97.80
40151;DHT22;25866;52.420;10.640;2022-07-29T05:46:03;15.40;97.70
40151;DHT22;25866;52.420;10.640;2022-07-29T05:48:28;15.50;97.90
40151;DHT22;25866;52.420;10.640;2022-07-29T05:50:54;15.50;97.90
40151;DHT22;25866;52.420;10.640;2022-07-29T05:53:20;15.50;98.30
40151;DHT22;25866;52.420;10.640;2022-07-29T05:55:49;15.50;98.10
40151;DHT22;25866;52.420;10.640;2022-07-29T05:58:15;15.70;97.90
40151;DHT22;25866;52.420;10.640;2022-07-29T06:00:41;15.70;97.80
40151;DHT22;25866;52.420;10.640;2022-07-29T06:03:07;15.70;98.20
40151;DHT22;25866;52.420;10.640;2022-07-29T06:05:33;15.70;98.10
40151;DHT22;25866;52.420;10.640;2022-07-29T06:07:59;15.80;97.70
40151;DHT22;25866;52.420;10.640;2022-07-29T06:10:25;15.90;97.80
40151;DHT22;25866;52.420;10.640;2022-07-29T06:12:50;16.00;97.80
40151;DHT22;25866;52.420;10.640;2022-07-29T06:15:18;16.00;97.20
40151;DHT22;25866;52.420;10.640;2022-07-29T06:17:43;16.10;97.40
40151;DHT22;25866;52.420;10.640;2022-07-29T06:20:09;16.10;97.20
40151;DHT22;25866;52.420;10.640;2022-07-29T06:22:35;16.20;97.00
40151;DHT22;25866;52.420;10.640;2022-07-29T06:25:03;16.20;97.00
40151;DHT22;25866;52.420;10.640;2022-07-29T06:27:29;16.30;97.20
40151;DHT22;25866;52.420;10.640;2022-07-29T06:29:56;16.40;96.80
40151;DHT22;25866;52.420;10.640;2022-07-29T06:32:22;16.50;97.00
40151;DHT22;25866;52.420;10.640;2022-07-29T06:34:53;16.50;96.80
40151;DHT22;25866;52.420;10.640;2022-07-29T06:37:18;16.70;96.70
40151;DHT22;25866;52.420;10.640;2022-07-29T06:39:44;16.80;96.90
40151;DHT22;25866;52.420;10.640;2022-07-29T06:42:10;16.90;97.00
40151;DHT22;25866;52.420;10.640;2022-07-29T06:44:35;17.00;96.70
40151;DHT22;25866;52.420;10.640;2022-07-29T06:47:02;17.10;96.40
40151;DHT22;25866;52.420;10.640;2022-07-29T06:49:28;17.30;96.10
40151;DHT22;25866;52.420;10.640;2022-07-29T06:51:54;17.40;96.10
40151;DHT22;25866;52.420;10.640;2022-07-29T06:54:20;17.50;95.50
40151;DHT22;25866;52.420;10.640;2022-07-29T06:56:48;17.50;94.90
40151;DHT22;25866;52.420;10.640;2022-07-29T06:59:13;17.60;95.10
40151;DHT22;25866;52.420;10.640;2022-07-29T07:01:41;17.80;95.10
40151;DHT22;25866;52.420;10.640;2022-07-29T07:04:08;17.90;95.10
40151;DHT22;25866;52.420;10.640;2022-07-29T07:06:35;18.10;95.50
40151;DHT22;25866;52.420;10.640;2022-07-29T07:09:01;18.20;94.40
40151;DHT22;25866;52.420;10.640;2022-07-29T07:11:27;18.30;94.30
40151;DHT22;25866;52.420;10.640;2022-07-29T07:13:53;18.30;94.20
40151;DHT22;25866;52.420;10.640;2022-07-29T07:16:28;18.30;94.00
40151;DHT22;25866;52.420;10.640;2022-07-29T07:18:53;18.30;94.20
40151;DHT22;25866;52.420;10.640;2022-07-29T07:21:19;18.40;94.20
40151;DHT22;25866;52.420;10.640;2022-07-29T07:23:45;18.40;94.30
40151;DHT22;25866;52.420;10.640;2022-07-29T07:26:13;18.60;94.30
40151;DHT22;25866;52.420;10.640;2022-07-29T07:28:38;18.70;93.40
40151;DHT22;25866;52.420;10.640;2022-07-29T07:31:05;18.70;93.50
40151;DHT22;25866;52.420;10.640;2022-07-29T07:33:30;18.80;93.00
40151;DHT22;25866;52.420;10.640;2022-07-29T07:35:58;18.90;93.60
40151;DHT22;25866;52.420;10.640;2022-07-29T07:38:24;19.00;93.10
40151;DHT22;25866;52.420;10.640;2022-07-29T07:40:49;19.20;93.30
40151;DHT22;25866;52.420;10.640;2022-07-29T07:43:15;19.40;92.60
40151;DHT22;25866;52.420;10.640;2022-07-29T07:45:53;19.40;92.40
40151;DHT22;25866;52.420;10.640;2022-07-29T07:48:19;19.50;92.10
40151;DHT22;25866;52.420;10.640;2022-07-29T07:50:44;19.40;92.00
40151;DHT22;25866;52.420;10.640;2022-07-29T07:53:10;19.30;92.30
40151;DHT22;25866;52.420;10.640;2022-07-29T07:56:04;19.40;91.90
40151;DHT22;25866;52.420;10.640;2022-07-29T07:58:31;19.70;91.80
40151;DHT22;25866;52.420;10.640;2022-07-29T08:00:57;19.80;91.50
40151;DHT22;25866;52.420;10.640;2022-07-29T08:03:22;20.20;91.30
40151;DHT22;25866;52.420;10.640;2022-07-29T08:05:49;20.40;91.30
40151;DHT22;25866;52.420;10.640;2022-07-29T08:08:17;20.40;91.10
40151;DHT22;25866;52.420;10.640;2022-07-29T08:10:43;20.20;90.90
40151;DHT22;25866;52.420;10.640;2022-07-29T08:13:18;20.20;91.40
40151;DHT22;25866;52.420;10.640;2022-07-29T08:15:47;20.20;91.70
40151;DHT22;25866;52.420;10.640;2022-07-29T08:18:13;20.20;91.50
40151;DHT22;25866;52.420;10.640;2022-07-29T08:20:39;20.20;91.90
40151;DHT22;25866;52.420;10.640;2022-07-29T08:23:08;20.20;91.30
40151;DHT22;25866;52.420;10.640;2022-07-29T08:25:36;20.10;91.50
40151;DHT22;25866;52.420;10.640;2022-07-29T08:28:03;20.10;91.60
40151;DHT22;25866;52.420;10.640;2022-07-29T08:30:29;20.10;92.00
40151;DHT22;25866;52.420;10.640;2022-07-29T08:32:54;20.10;91.80
40151;DHT22;25866;52.420;10.640;2022-07-29T08:35:21;20.00;92.30
40151;DHT22;25866;52.420;10.640;2022-07-29T08:37:50;20.00;92.00
40151;DHT22;25866;52.420;10.640;2022-07-29T08:40:16;20.00;91.90
40151;DHT22;25866;52.420;10.640;2022-07-29T08:42:41;20.00;92.10
40151;DHT22;25866;52.420;10.640;2022-07-29T08:45:08;20.00;91.60
40151;DHT22;25866;52.420;10.640;2022-07-29T08:47:52;20.10;91.70
40151;DHT22;25866;52.420;10.640;2022-07-29T08:50:18;20.20;91.80
40151;DHT22;25866;52.420;10.640;2022-07-29T08:52:44;20.30;92.20
40151;DHT22;25866;52.420;10.640;2022-07-29T08:55:10;20.40;91.50
40151;DHT22;25866;52.420;10.640;2022-07-29T08:57:38;20.60;91.70
40151;DHT22;25866;52.420;10.640;2022-07-29T09:00:06;20.70;91.60
40151;DHT22;25866;52.420;10.640;2022-07-29T09:02:39;20.70;91.90
40151;DHT22;25866;52.420;10.640;2022-07-29T09:05:06;20.80;91.20
40151;DHT22;25866;52.420;10.640;2022-07-29T09:07:48;20.90;91.60
40151;DHT22;25866;52.420;10.640;2022-07-29T09:10:14;20.90;90.80
40151;DHT22;25866;52.420;10.640;2022-07-29T09:12:39;21.00;91.30
40151;DHT22;25866;52.420;10.640;2022-07-29T09:15:05;21.20;91.10
40151;DHT22;25866;52.420;10.640;2022-07-29T09:17:48;21.30;90.40
40151;DHT22;25866;52.420;10.640;2022-07-29T09:20:19;21.40;90.20
40151;DHT22;25866;52.420;10.640;2022-07-29T09:22:46;21.40;90.50
40151;DHT22;25866;52.420;10.640;2022-07-29T09:25:31;21.60;90.90
40151;DHT22;25866;52.420;10.640;2022-07-29T09:30:36;22.20;90.00
40151;DHT22;25866;52.420;10.640;2022-07-29T09:33:05;22.40;89.50
40151;DHT22;25866;52.420;10.640;2022-07-29T09:35:30;22.40;90.00
40151;DHT22;25866;52.420;10.640;2022-07-29T09:38:14;22.40;89.40
40151;DHT22;25866;52.420;10.640;2022-07-29T09:40:40;22.40;88.30
40151;DHT22;25866;52.420;10.640;2022-07-29T09:43:13;22.50;86.80
40151;DHT22;25866;52.420;10.640;2022-07-29T09:45:39;22.60;89.00
40151;DHT22;25866;52.420;10.640;2022-07-29T09:48:26;22.60;88.80
40151;DHT22;25866;52.420;10.640;2022-07-29T09:50:52;22.60;87.40
40151;DHT22;25866;52.420;10.640;2022-07-29T09:53:37;22.50;86.50
40151;DHT22;25866;52.420;10.640;2022-07-29T09:56:05;22.50;88.30
40151;DHT22;25866;52.420;10.640;2022-07-29T09:58:33;22.40;87.70
40151;DHT22;25866;52.420;10.640;2022-07-29T10:00:59;22.50;87.60
40151;DHT22;25866;52.420;10.640;2022-07-29T10:03:25;22.40;87.00
40151;DHT22;25866;52.420;10.640;2022-07-29T10:06:09;22.50;88.90
40151;DHT22;25866;52.420;10.640;2022-07-29T10:08:40;22.80;87.60
40151;DHT22;25866;52.420;10.640;2022-07-29T10:11:13;23.10;86.90
40151;DHT22;25866;52.420;10.640;2022-07-29T10:13:40;23.40;86.20
40151;DHT22;25866;52.420;10.640;2022-07-29T10:16:06;23.80;85.10
40151;DHT22;25866;52.420;10.640;2022-07-29T10:18:34;23.70;85.40
40151;DHT22;25866;52.420;10.640;2022-07-29T10:21:00;23.90;84.20
40151;DHT22;25866;52.420;10.640;2022-07-29T10:23:28;24.20;82.70
40151;DHT22;25866;52.420;10.640;2022-07-29T10:25:54;24.20;83.40
40151;DHT22;25866;52.420;10.640;2022-07-29T10:28:31;24.40;82.20
40151;DHT22;25866;52.420;10.640;2022-07-29T10:31:01;24.70;80.60
40151;DHT22;25866;52.420;10.640;2022-07-29T10:42:17;24.90;81.10
40151;DHT22;25866;52.420;10.640;2022-07-29T10:44:45;25.20;82.70
40151;DHT22;25866;52.420;10.640;2022-07-29T10:47:24;25.40;80.40
40151;DHT22;25866;52.420;10.640;2022-07-29T10:50:00;25.60;81.70
40151;DHT22;25866;52.420;10.640;2022-07-29T10:52:54;25.70;80.50
40151;DHT22;25866;52.420;10.640;2022-07-29T10:55:44;25.80;78.30
40151;DHT22;25866;52.420;10.640;2022-07-29T10:58:22;25.70;78.70
40151;DHT22;25866;52.420;10.640;2022-07-29T11:00:52;25.50;79.90
40151;DHT22;25866;52.420;10.640;2022-07-29T11:03:48;25.40;78.90
40151;DHT22;25866;52.420;10.640;2022-07-29T11:06:15;25.20;81.10
40151;DHT22;25866;52.420;10.640;2022-07-29T11:08:43;25.00;79.10
40151;DHT22;25866;52.420;10.640;2022-07-29T11:13:53;24.80;80.90
40151;DHT22;25866;52.420;10.640;2022-07-29T11:16:21;24.80;79.00
40151;DHT22;25866;52.420;10.640;2022-07-29T11:19:21;24.70;78.80
40151;DHT22;25866;52.420;10.640;2022-07-29T11:21:49;24.80;79.40
40151;DHT22;25866;52.420;10.640;2022-07-29T11:24:25;24.80;80.40
40151;DHT22;25866;52.420;10.640;2022-07-29T11:27:19;24.90;79.60
40151;DHT22;25866;52.420;10.640;2022-07-29T11:29:59;25.00;79.20
40151;DHT22;25866;52.420;10.640;2022-07-29T11:32:42;25.00;78.00
40151;DHT22;25866;52.420;10.640;2022-07-29T11:35:28;25.10;79.70
40151;DHT22;25866;52.420;10.640;2022-07-29T11:38:24;25.20;79.10
40151;DHT22;25866;52.420;10.640;2022-07-29T11:41:25;25.20;78.40
40151;DHT22;25866;52.420;10.640;2022-07-29T11:43:58;25.30;77.10
40151;DHT22;25866;52.420;10.640;2022-07-29T11:46:50;25.30;77.70
40151;DHT22;25866;52.420;10.640;2022-07-29T11:49:25;25.40;74.40
40151;DHT22;25866;52.420;10.640;2022-07-29T11:51:52;25.40;76.80
40151;DHT22;25866;52.420;10.640;2022-07-29T11:54:24;25.50;73.20
40151;DHT22;25866;52.420;10.640;2022-07-29T11:56:51;25.50;73.60
40151;DHT22;25866;52.420;10.640;2022-07-29T11:59:21;25.50;74.40
40151;DHT22;25866;52.420;10.640;2022-07-29T12:02:00;25.60;74.30
40151;DHT22;25866;52.420;10.640;2022-07-29T12:04:25;25.60;73.00
40151;DHT22;25866;52.420;10.640;2022-07-29T12:06:54;25.60;72.70
40151;DHT22;25866;52.420;10.640;2022-07-29T12:09:21;25.60;73.60
40151;DHT22;25866;52.420;10.640;2022-07-29T12:11:47;25.60;73.20
40151;DHT22;25866;52.420;10.640;2022-07-29T12:14:29;25.70;73.50
40151;DHT22;25866;52.420;10.640;2022-07-29T12:16:56;25.70;72.90
40151;DHT22;25866;52.420;10.640;2022-07-29T12:19:28;25.70;73.00
40151;DHT22;25866;52.420;10.640;2022-07-29T12:21:54;25.70;73.20
40151;DHT22;25866;52.420;10.640;2022-07-29T12:24:21;25.60;72.30
40151;DHT22;25866;52.420;10.640;2022-07-29T12:26:59;25.60;73.20
40151;DHT22;25866;52.420;10.640;2022-07-29T12:29:25;25.60;73.90
40151;DHT22;25866;52.420;10.640;2022-07-29T12:31:54;25.60;73.40
40151;DHT22;25866;52.420;10.640;2022-07-29T12:34:22;25.60;74.10
40151;DHT22;25866;52.420;10.640;2022-07-29T12:36:48;25.60;73.30
40151;DHT22;25866;52.420;10.640;2022-07-29T12:39:19;25.50;73.80
40151;DHT22;25866;52.420;10.640;2022-07-29T12:41:45;25.60;73.00
40151;DHT22;25866;52.420;10.640;2022-07-29T12:44:11;25.50;71.30
40151;DHT22;25866;52.420;10.640;2022-07-29T12:46:37;25.60;73.80
40151;DHT22;25866;52.420;10.640;2022-07-29T12:49:03;25.70;71.80
40151;DHT22;25866;52.420;10.640;2022-07-29T12:51:36;25.70;72.00
40151;DHT22;25866;52.420;10.640;2022-07-29T12:54:20;25.70;71.70
40151;DHT22;25866;52.420;10.640;2022-07-29T12:56:45;25.80;74.50
40151;DHT22;25866;52.420;10.640;2022-07-29T12:59:20;25.80;72.70
40151;DHT22;25866;52.420;10.640;2022-07-29T13:01:47;25.90;73.00
40151;DHT22;25866;52.420;10.640;2022-07-29T13:04:31;26.00;72.90
40151;DHT22;25866;52.420;10.640;2022-07-29T13:07:04;26.10;72.10
40151;DHT22;25866;52.420;10.640;2022-07-29T13:09:42;26.20;73.20
40151;DHT22;25866;52.420;10.640;2022-07-29T13:12:12;26.20;69.90
40151;DHT22;25866;52.420;10.640;2022-07-29T13:14:44;26.30;70.00
40151;DHT22;25866;52.420;10.640;2022-07-29T13:17:18;26.40;70.50
40151;DHT22;25866;52.420;10.640;2022-07-29T13:19:47;26.40;70.80
40151;DHT22;25866;52.420;10.640;2022-07-29T13:22:21;26.40;69.90
40151;DHT22;25866;52.420;10.640;2022-07-29T13:27:17;26.40;71.30
40151;DHT22;25866;52.420;10.640;2022-07-29T13:29:43;26.40;71.20
40151;DHT22;25866;52.420;10.640;2022-07-29T13:32:09;26.30;70.60
40151;DHT22;25866;52.420;10.640;2022-07-29T13:34:35;26.30;70.10
40151;DHT22;25866;52.420;10.640;2022-07-29T13:37:01;26.40;70.50
40151;DHT22;25866;52.420;10.640;2022-07-29T13:39:26;26.40;71.50
40151;DHT22;25866;52.420;10.640;2022-07-29T13:41:53;26.40;70.20
40151;DHT22;25866;52.420;10.640;2022-07-29T13:44:19;26.40;73.00
40151;DHT22;25866;52.420;10.640;2022-07-29T13:46:44;26.30;70.80
40151;DHT22;25866;52.420;10.640;2022-07-29T13:49:10;26.30;70.30
40151;DHT22;25866;52.420;10.640;2022-07-29T13:51:38;26.30;69.00
40151;DHT22;25866;52.420;10.640;2022-07-29T13:54:04;26.20;68.70
40151;DHT22;25866;52.420;10.640;2022-07-29T13:56:30;26.10;71.60
40151;DHT22;25866;52.420;10.640;2022-07-29T13:58:55;26.10;71.40
40151;DHT22;25866;52.420;10.640;2022-07-29T14:01:24;26.10;70.20
40151;DHT22;25866;52.420;10.640;2022-07-29T14:03:49;26.10;70.50
40151;DHT22;25866;52.420;10.640;2022-07-29T14:06:15;26.10;70.90
40151;DHT22;25866;52.420;10.640;2022-07-29T14:08:41;26.00;70.80
40151;DHT22;25866;52.420;10.640;2022-07-29T14:11:10;26.10;70.10
40151;DHT22;25866;52.420;10.640;2022-07-29T14:13:35;26.00;71.80
40151;DHT22;25866;52.420;10.640;2022-07-29T14:16:01;26.00;71.30
40151;DHT22;25866;52.420;10.640;2022-07-29T14:18:26;26.00;71.30
40151;DHT22;25866;52.420;10.640;2022-07-29T14:20:52;26.00;73.20
40151;DHT22;25866;52.420;10.640;2022-07-29T14:23:18;26.00;72.20
40151;DHT22;25866;52.420;10.640;2022-07-29T14:25:44;26.00;71.50
40151;DHT22;25866;52.420;10.640;2022-07-29T14:28:09;26.00;71.90
40151;DHT22;25866;52.420;10.640;2022-07-29T14:30:35;26.00;72.70
40151;DHT22;25866;52.420;10.640;2022-07-29T14:33:21;26.10;72.90
40151;DHT22;25866;52.420;10.640;2022-07-29T14:35:47;26.10;72.00
40151;DHT22;25866;52.420;10.640;2022-07-29T14:38:13;26.10;71.70
40151;DHT22;25866;52.420;10.640;2022-07-29T14:40:38;26.10;70.80
40151;DHT22;25866;52.420;10.640;2022-07-29T14:43:15;26.00;68.80
40151;DHT22;25866;52.420;10.640;2022-07-29T14:45:41;26.00;70.40
40151;DHT22;25866;52.420;10.640;2022-07-29T14:48:06;26.00;72.20
40151;DHT22;25866;52.420;10.640;2022-07-29T14:50:32;26.00;71.90
40151;DHT22;25866;52.420;10.640;2022-07-29T14:53:19;26.00;72.70
40151;DHT22;25866;52.420;10.640;2022-07-29T14:55:44;26.00;72.80
40151;DHT22;25866;52.420;10.640;2022-07-29T14:58:10;26.00;73.20
40151;DHT22;25866;52.420;10.640;2022-07-29T15:00:36;26.00;72.20
40151;DHT22;25866;52.420;10.640;2022-07-29T15:03:08;26.00;70.80
40151;DHT22;25866;52.420;10.640;2022-07-29T15:05:35;26.00;72.90
40151;DHT22;25866;52.420;10.640;2022-07-29T15:08:02;26.10;70.80
40151;DHT22;25866;52.420;10.640;2022-07-29T15:10:28;26.10;71.10
40151;DHT22;25866;52.420;10.640;2022-07-29T15:12:57;26.20;71.90
40151;DHT22;25866;52.420;10.640;2022-07-29T15:15:23;26.10;70.10
40151;DHT22;25866;52.420;10.640;2022-07-29T15:17:48;26.20;72.30
40151;DHT22;25866;52.420;10.640;2022-07-29T15:20:14;26.20;71.60
40151;DHT22;25866;52.420;10.640;2022-07-29T15:22:42;26.10;71.10
40151;DHT22;25866;52.420;10.640;2022-07-29T15:25:08;26.10;69.50
40151;DHT22;25866;52.420;10.640;2022-07-29T15:27:34;26.10;71.10
40151;DHT22;25866;52.420;10.640;2022-07-29T15:30:00;26.00;71.50
40151;DHT22;25866;52.420;10.640;2022-07-29T15:32:26;26.00;72.10
40151;DHT22;25866;52.420;10.640;2022-07-29T15:34:51;26.00;71.80
40151;DHT22;25866;52.420;10.640;2022-07-29T15:37:17;25.90;71.10
40151;DHT22;25866;52.420;10.640;2022-07-29T15:39:42;25.80;69.80
40151;DHT22;25866;52.420;10.640;2022-07-29T15:42:12;25.80;71.10
40151;DHT22;25866;52.420;10.640;2022-07-29T15:44:38;25.70;70.80
40151;DHT22;25866;52.420;10.640;2022-07-29T15:47:03;25.70;71.60
40151;DHT22;25866;52.420;10.640;2022-07-29T15:49:36;25.60;72.20
40151;DHT22;25866;52.420;10.640;2022-07-29T15:52:07;25.50;73.30
40151;DHT22;25866;52.420;10.640;2022-07-29T15:54:35;25.40;73.20
40151;DHT22;25866;52.420;10.640;2022-07-29T15:57:01;25.30;72.50
40151;DHT22;25866;52.420;10.640;2022-07-29T15:59:27;25.30;72.40
40151;DHT22;25866;52.420;10.640;2022-07-29T16:01:53;25.20;72.50
40151;DHT22;25866;52.420;10.640;2022-07-29T16:04:28;25.20;73.10